Terminal Aerodrome Forecast
Issued by NWS

Current Version | Previous Version | Text Only | Print | Product List | Glossary On
Versions: 1 2 3 4 5 6 7 8 9 10 11 12 13
000
FTAK31 PANC 301130
TAFAHO
TAF
PAHO 301130Z 3012/3112 VRB06KT P6SM VCSH SCT045 BKN060
     FM302000 18007KT P6SM VCSH SCT070 BKN120
     FM302200 22011KT P6SM VCSH FEW070 SCT100=

USA.gov is the U.S. government's official web portal to all federal, state and local government web resources and services.